Search for airport 
image banner adimage banner adimage banner ad
image banner ad

74PA - Shontz

Located in Zieglerville, United States

ICAO - 74PA, IATA -

Data provided by Airmate  

General information

Coordinates: N40°17'30" W75°27'59"
Elevation is 300 feet MSL.
Magnetic variation is -11° East
View others Airports in Pennsylvania

Operational data

Special qualification required
Current time UTC:
Current local time:
Weather at : KPTW - Heritage Field ( 10 km )
METAR: KPTW 091154Z AUTO 25004KT 10SM CLR 07/03 A3012 RMK AO2 SLP197 T00720033 10072 20033 51008
View NOTAMs / SUP AIP / TFR affecting this airport [VIEW]
Communications frequencies: [VIEW]

Runways:

RWY identifierQFULength (ft)Width (ft)SurfaceLDA (ft)
141200100GRASS
321200100GRASS

Airport contact information

Address: Zieglerville United States

Satellite view of 74PA